< < Back
Terminal Aerodrome Forecast


Current Version              Previous Versions:   1  2  3  4  5  6  7  8  9  

Terminal Aerodrome Forecast

338
FTAK31 PAJN 300500
TAFAHN
TAF
PAHN 300540Z 3006/0106 12008KT P6SM BKN060
     FM301500 12008KT P6SM BKN050 BKN100
     FM302000 12010KT P6SM VCSH SCT020 OVC050
      AMD LTD TO CLD VIS AND WIND=

Latest METAR

662
SAUS70 KWBC 301500
MTRAHN
METAR KAHN 301451Z VRB06KT 10SM CLR 29/20 A3002 RMK AO2 SLP156 T02940200
50005


USA.gov is the U.S. government's official web portal to all federal, state and local government web resources and services.